createdAt,value
2023-02-03T00:03:31.987Z,4.20
2023-02-03T00:08:33.587Z,4.17
2023-02-03T00:13:35.510Z,3.77
2023-02-03T00:18:37.196Z,3.83
2023-02-03T00:23:38.931Z,7.63
2023-02-03T00:28:40.523Z,5.27
2023-02-03T00:33:42.167Z,4.90
2023-02-03T00:38:43.742Z,3.40
2023-02-03T00:43:45.533Z,4.53
2023-02-03T00:48:47.092Z,4.87
2023-02-03T00:53:49.173Z,3.33
2023-02-03T00:58:51.764Z,4.90
2023-02-03T01:03:56.041Z,6.57
2023-02-03T01:08:57.723Z,3.17
2023-02-03T01:14:01.664Z,4.47
2023-02-03T01:19:03.481Z,3.77
2023-02-03T01:24:05.381Z,4.47
2023-02-03T01:29:07.461Z,2.80
2023-02-03T01:34:14.454Z,4.63
2023-02-03T01:39:16.069Z,3.53
2023-02-03T01:44:40.142Z,2.57
2023-02-03T01:49:49.284Z,3.13
2023-02-03T01:54:52.944Z,4.53
2023-02-03T01:59:55.786Z,4.77
2023-02-03T02:05:03.892Z,2.40
2023-02-03T02:10:06.260Z,3.63
2023-02-03T02:15:09.179Z,4.07
2023-02-03T02:20:31.983Z,4.73
2023-02-03T02:25:55.265Z,3.13
2023-02-03T02:31:23.841Z,2.13
2023-02-03T02:36:43.925Z,4.00
2023-02-03T02:42:07.126Z,3.30
2023-02-03T02:47:26.877Z,2.93
2023-02-03T02:52:30.478Z,3.10
2023-02-03T02:57:34.937Z,2.57
2023-02-03T03:02:36.891Z,4.17
2023-02-03T03:07:48.881Z,3.37
2023-02-03T03:12:55.936Z,2.20
2023-02-03T03:18:06.144Z,2.00
2023-02-03T03:23:13.279Z,2.10
2023-02-03T03:28:24.288Z,2.23
2023-02-03T03:33:25.884Z,2.10
2023-02-03T03:38:41.846Z,2.17
2023-02-03T03:43:45.152Z,2.63
2023-02-03T03:48:49.341Z,3.70
2023-02-03T03:53:52.121Z,1.90
2023-02-03T03:58:54.666Z,3.80
2023-02-03T04:04:00.244Z,3.07
2023-02-03T04:09:02.278Z,3.77
2023-02-03T04:14:03.909Z,2.80
2023-02-03T04:19:08.170Z,2.70
2023-02-03T04:24:10.368Z,2.00
2023-02-03T04:29:12.041Z,2.27
2023-02-03T04:34:13.741Z,2.50
2023-02-03T04:39:15.397Z,4.03
2023-02-03T04:44:23.736Z,3.27
2023-02-03T04:49:25.366Z,3.00
2023-02-03T04:54:27.047Z,4.87
2023-02-03T04:59:28.705Z,5.67
2023-02-03T05:04:30.706Z,2.50
2023-02-03T05:09:32.308Z,3.00
2023-02-03T05:14:33.918Z,4.93
2023-02-03T05:19:35.610Z,3.73
2023-02-03T05:24:37.977Z,2.20
2023-02-03T05:29:39.578Z,2.60
2023-02-03T05:34:42.392Z,2.10
2023-02-03T05:39:44.219Z,2.17
2023-02-03T05:44:45.737Z,2.40
2023-02-03T05:49:47.346Z,2.03
2023-02-03T05:54:48.856Z,3.30
2023-02-03T05:59:50.592Z,3.30
2023-02-03T06:04:52.191Z,1.70
2023-02-03T06:09:53.830Z,3.13
2023-02-03T06:14:55.439Z,2.50
2023-02-03T06:19:57.111Z,1.70
2023-02-03T06:24:58.934Z,5.03
2023-02-03T06:30:01.468Z,3.40
2023-02-03T06:35:03.845Z,6.73
2023-02-03T06:40:07.623Z,1.73
2023-02-03T06:45:09.760Z,2.40
2023-02-03T06:50:13.804Z,2.97
2023-02-03T06:55:15.873Z,2.57
2023-02-03T07:00:19.457Z,2.23
2023-02-03T07:05:22.153Z,2.43
2023-02-03T07:10:30.141Z,2.67
2023-02-03T07:15:32.080Z,2.23
2023-02-03T07:20:33.716Z,1.80
2023-02-03T07:25:35.263Z,2.93
2023-02-03T07:30:48.492Z,1.70
2023-02-03T07:35:57.853Z,3.23
2023-02-03T07:40:59.821Z,2.23
2023-02-03T07:46:01.993Z,1.43
2023-02-03T07:51:03.820Z,2.20
2023-02-03T07:56:05.768Z,3.00
2023-02-03T08:01:16.297Z,4.53
2023-02-03T08:06:17.897Z,2.00
2023-02-03T08:11:20.454Z,2.10
2023-02-03T08:16:22.108Z,2.07
2023-02-03T08:21:23.820Z,2.37
2023-02-03T08:26:25.405Z,2.40
2023-02-03T08:31:27.281Z,3.07
2023-02-03T08:36:28.839Z,1.37
2023-02-03T08:41:31.375Z,1.80
2023-02-03T08:46:33.286Z,1.50
2023-02-03T08:51:34.980Z,1.20
2023-02-03T08:56:36.854Z,2.53
2023-02-03T09:01:40.876Z,3.07
2023-02-03T09:06:42.697Z,2.30
2023-02-03T09:11:45.417Z,2.57
2023-02-03T09:16:46.967Z,1.90
2023-02-03T09:21:49.186Z,2.50
2023-02-03T09:26:51.293Z,2.20
2023-02-03T09:31:54.543Z,1.37
2023-02-03T09:36:56.278Z,2.87
2023-02-03T09:42:11.147Z,1.57
2023-02-03T09:47:18.855Z,1.30
2023-02-03T09:52:32.760Z,2.70
2023-02-03T09:57:42.602Z,1.83
2023-02-03T10:03:01.475Z,1.93
2023-02-03T10:08:21.183Z,2.70
2023-02-03T10:13:30.353Z,1.43
2023-02-03T10:18:50.977Z,1.67
2023-02-03T10:23:55.021Z,2.73
2023-02-03T10:28:58.628Z,1.53
2023-02-03T10:34:05.074Z,2.70
2023-02-03T10:39:37.357Z,2.23
2023-02-03T10:45:00.667Z,1.40
2023-02-03T10:50:07.750Z,1.60
2023-02-03T10:55:31.048Z,1.70
2023-02-03T11:00:34.541Z,8.00
2023-02-03T11:05:36.157Z,1.73
2023-02-03T11:10:40.639Z,1.67
2023-02-03T11:15:51.340Z,2.20
2023-02-03T11:20:53.189Z,2.50
2023-02-03T11:25:54.722Z,2.73
2023-02-03T11:30:57.832Z,1.60
2023-02-03T11:36:02.373Z,2.33
2023-02-03T11:41:03.956Z,1.87
2023-02-03T11:46:09.618Z,1.90
2023-02-03T11:51:35.808Z,2.93
2023-02-03T11:57:01.791Z,2.00
2023-02-03T12:02:33.575Z,2.50
2023-02-03T12:07:50.215Z,2.40
2023-02-03T12:13:16.353Z,2.33
2023-02-03T12:18:20.688Z,4.07
2023-02-03T12:23:42.473Z,2.70
2023-02-03T12:28:48.322Z,2.70
2023-02-03T12:33:55.978Z,2.70
2023-02-03T12:39:03.302Z,3.27
2023-02-03T12:44:28.179Z,3.40
2023-02-03T12:49:35.791Z,3.53
2023-02-03T12:55:14.748Z,5.77
2023-02-03T13:00:39.755Z,4.97
2023-02-03T13:05:45.331Z,4.33
2023-02-03T13:10:50.674Z,6.87
2023-02-03T13:15:54.256Z,3.93
2023-02-03T13:20:56.125Z,4.67
2023-02-03T13:26:13.207Z,4.97
2023-02-03T13:31:34.266Z,4.60
2023-02-03T13:36:48.065Z,4.50
2023-02-03T13:41:54.413Z,5.07
2023-02-03T13:46:59.710Z,6.93
2023-02-03T13:52:01.567Z,8.87
2023-02-03T13:57:05.879Z,7.73
2023-02-03T14:02:19.836Z,5.60
2023-02-03T14:07:24.905Z,6.87
2023-02-03T14:12:33.312Z,6.70
2023-02-03T14:17:35.054Z,7.40
2023-02-03T14:22:39.708Z,6.00
2023-02-03T14:27:41.454Z,8.10
2023-02-03T14:32:54.728Z,7.50
2023-02-03T14:38:00.486Z,6.90
2023-02-03T14:43:40.808Z,7.50
2023-02-03T14:48:55.484Z,7.73
2023-02-03T14:54:19.751Z,8.53
2023-02-03T14:59:22.679Z,6.47
2023-02-03T15:04:25.324Z,6.47
2023-02-03T15:09:33.246Z,6.20
2023-02-03T15:14:34.848Z,7.30
2023-02-03T15:19:40.457Z,7.33
2023-02-03T15:24:42.227Z,7.23
2023-02-03T15:29:44.840Z,5.43
2023-02-03T15:34:48.966Z,6.47
2023-02-03T15:40:03.234Z,6.17
2023-02-03T15:45:09.016Z,7.93
2023-02-03T15:50:26.179Z,6.07
2023-02-03T15:55:41.876Z,10.37
2023-02-03T16:01:07.775Z,9.20
2023-02-03T16:06:25.575Z,5.67
2023-02-03T16:11:37.166Z,5.57
2023-02-03T16:16:47.188Z,5.67
2023-02-03T16:21:59.754Z,6.33
2023-02-03T16:27:26.350Z,8.40
2023-02-03T16:32:46.311Z,6.23
2023-02-03T16:38:06.417Z,6.77
2023-02-03T16:43:34.404Z,6.70
2023-02-03T16:48:54.406Z,6.00
2023-02-03T16:53:56.031Z,6.50
2023-02-03T16:58:57.735Z,10.70
2023-02-03T17:04:02.677Z,9.80
2023-02-03T17:09:04.340Z,9.47
2023-02-03T17:14:05.853Z,7.50
2023-02-03T17:19:18.379Z,5.97
2023-02-03T17:24:20.214Z,13.57
2023-02-03T17:29:22.035Z,4.03
2023-02-03T17:34:23.697Z,7.87
2023-02-03T17:55:24.922Z,5.70
2023-02-03T18:00:27.140Z,8.87
2023-02-03T18:05:29.096Z,5.43
2023-02-03T18:10:30.926Z,12.07
2023-02-03T18:15:33.133Z,11.40
2023-02-03T18:20:35.050Z,6.23
2023-02-03T18:25:36.636Z,8.20
2023-02-03T18:30:38.247Z,5.57
2023-02-03T18:35:39.888Z,8.67
2023-02-03T18:40:41.565Z,7.40
2023-02-03T18:45:43.140Z,7.67
2023-02-03T18:50:44.904Z,5.87
2023-02-03T18:55:46.587Z,8.83
2023-02-03T19:00:48.207Z,5.93
2023-02-03T19:05:50.111Z,7.13
2023-02-03T19:10:53.522Z,12.00
2023-02-03T19:15:55.556Z,9.73
2023-02-03T19:20:57.193Z,15.30
2023-02-03T19:25:59.139Z,12.77
2023-02-03T19:31:12.362Z,10.00
2023-02-03T19:36:14.301Z,9.47
2023-02-03T19:41:15.844Z,7.47
2023-02-03T19:46:18.641Z,5.33
2023-02-03T19:51:20.258Z,7.90
2023-02-03T19:56:21.945Z,13.30
2023-02-03T20:01:24.203Z,9.57
2023-02-03T20:06:27.406Z,7.80
2023-02-03T20:11:29.503Z,10.27
2023-02-03T20:16:31.161Z,9.23
2023-02-03T20:21:32.784Z,11.93
2023-02-03T20:26:34.310Z,15.13
2023-02-03T20:31:35.982Z,10.27
2023-02-03T20:36:38.296Z,12.13
2023-02-03T20:41:39.903Z,8.37
2023-02-03T20:46:41.518Z,8.40
2023-02-03T20:51:43.157Z,13.37
2023-02-03T20:56:45.518Z,12.13
2023-02-03T21:01:47.669Z,8.00
2023-02-03T21:06:49.212Z,8.33
2023-02-03T21:11:52.090Z,7.10
2023-02-03T21:16:54.631Z,8.77
2023-02-03T21:21:56.257Z,12.40
2023-02-03T21:26:59.567Z,13.00
2023-02-03T21:32:01.348Z,6.57
2023-02-03T21:37:21.226Z,8.30
2023-02-03T21:42:40.902Z,10.47
2023-02-03T21:47:44.418Z,6.73
2023-02-03T21:52:45.942Z,7.07
2023-02-03T21:57:48.302Z,11.87
2023-02-03T22:02:56.783Z,10.53
2023-02-03T22:07:58.543Z,8.87
2023-02-03T22:13:00.099Z,9.70
2023-02-03T22:18:01.760Z,8.33
2023-02-03T22:23:04.845Z,8.77
2023-02-03T22:28:06.584Z,11.67
2023-02-03T22:33:08.324Z,8.37
2023-02-03T22:38:10.214Z,6.43
2023-02-03T22:43:11.823Z,8.40
2023-02-03T22:48:13.368Z,11.60
2023-02-03T22:53:16.062Z,6.63
2023-02-03T22:58:17.647Z,8.90
2023-02-03T23:03:19.389Z,9.10
2023-02-03T23:08:20.947Z,7.17
2023-02-03T23:13:23.072Z,9.57
2023-02-03T23:18:24.728Z,10.33
2023-02-03T23:23:26.323Z,9.30
2023-02-03T23:28:28.434Z,9.03
2023-02-03T23:33:30.082Z,11.00
2023-02-03T23:38:33.366Z,9.17
2023-02-03T23:43:35.017Z,8.77
2023-02-03T23:48:36.551Z,10.03
2023-02-03T23:53:38.216Z,7.23
2023-02-03T23:58:39.803Z,12.17
